UATG/GUW METAR and TAF weather

Enter ICAO airport designator
Station Type Date Time Source
UATG METAR 2022/06/27 16:30 UTC NOAA

UATG 271630Z 05006MPS CAVOK 28/04 Q1011 NOSIG RMK QFE760/1013


Station Type Date Time Source
UATG Decoded METAR 2022/06/27 16:30 UTC NOAA

Station name not available
Jun 27, 2022 - 12:30 PM EDT / 2022.06.27 1630 UTC
Wind: from the NE (050 degrees) at 13 MPH (12 KT):0
Visibility: greater than 7 mile(s):0
Temperature: 82 F (28 C)
Dew Point: 39 F (4 C)
Relative Humidity: 21%
Pressure (altimeter): 29.85 in. Hg (1011 hPa)
ob: UATG 271630Z 05006MPS CAVOK 28/04 Q1011 NOSIG RMK QFE760/1013
cycle: 16

Station Type Date Time Source
UATG TAF 2022/06/27 12:21 UTC NOAA

TAF UATG 271100Z 2712/2812 04010MPS 9999 SCT033CB TX33/2811Z TN19/2801Z

Example: see airport list